sensor_id;sensor_type;location;lat;lon;timestamp;P1;durP1;ratioP1;P2;durP2;ratioP2
9420;SDS011;4749;51.398;5.466;2023-12-14T00:01:19;36.27;;;18.87;;
9420;SDS011;4749;51.398;5.466;2023-12-14T00:03:48;37.67;;;18.73;;
9420;SDS011;4749;51.398;5.466;2023-12-14T00:06:15;29.43;;;16.83;;
9420;SDS011;4749;51.398;5.466;2023-12-14T00:08:43;31.60;;;17.43;;
9420;SDS011;4749;51.398;5.466;2023-12-14T00:11:11;25.20;;;16.77;;
9420;SDS011;4749;51.398;5.466;2023-12-14T00:13:40;24.87;;;17.23;;
9420;SDS011;4749;51.398;5.466;2023-12-14T00:16:08;29.53;;;16.97;;
9420;SDS011;4749;51.398;5.466;2023-12-14T00:18:35;24.57;;;15.90;;
9420;SDS011;4749;51.398;5.466;2023-12-14T00:21:04;24.50;;;15.27;;
9420;SDS011;4749;51.398;5.466;2023-12-14T00:23:36;23.87;;;15.57;;
9420;SDS011;4749;51.398;5.466;2023-12-14T00:26:03;24.20;;;15.87;;
9420;SDS011;4749;51.398;5.466;2023-12-14T00:28:30;23.17;;;15.17;;
9420;SDS011;4749;51.398;5.466;2023-12-14T00:31:00;24.13;;;15.43;;
9420;SDS011;4749;51.398;5.466;2023-12-14T00:33:30;24.03;;;15.33;;
9420;SDS011;4749;51.398;5.466;2023-12-14T00:35:58;23.67;;;14.57;;
9420;SDS011;4749;51.398;5.466;2023-12-14T00:38:26;22.43;;;14.80;;
9420;SDS011;4749;51.398;5.466;2023-12-14T00:40:53;19.47;;;13.87;;
9420;SDS011;4749;51.398;5.466;2023-12-14T00:43:22;21.87;;;14.37;;
9420;SDS011;4749;51.398;5.466;2023-12-14T00:45:49;20.27;;;13.67;;
9420;SDS011;4749;51.398;5.466;2023-12-14T00:48:16;19.83;;;13.47;;
9420;SDS011;4749;51.398;5.466;2023-12-14T00:50:44;19.40;;;13.60;;
9420;SDS011;4749;51.398;5.466;2023-12-14T00:53:11;21.17;;;14.37;;
9420;SDS011;4749;51.398;5.466;2023-12-14T00:55:39;20.77;;;13.83;;
9420;SDS011;4749;51.398;5.466;2023-12-14T00:58:07;21.03;;;14.63;;
9420;SDS011;4749;51.398;5.466;2023-12-14T01:00:35;19.23;;;13.17;;
9420;SDS011;4749;51.398;5.466;2023-12-14T01:03:05;20.77;;;14.10;;
9420;SDS011;4749;51.398;5.466;2023-12-14T01:05:32;21.57;;;14.63;;
9420;SDS011;4749;51.398;5.466;2023-12-14T01:08:00;23.77;;;15.10;;
9420;SDS011;4749;51.398;5.466;2023-12-14T01:10:27;23.47;;;15.83;;
9420;SDS011;4749;51.398;5.466;2023-12-14T01:12:56;24.67;;;15.70;;
9420;SDS011;4749;51.398;5.466;2023-12-14T01:15:23;30.03;;;17.03;;
9420;SDS011;4749;51.398;5.466;2023-12-14T01:17:50;28.90;;;16.97;;
9420;SDS011;4749;51.398;5.466;2023-12-14T01:20:17;30.07;;;19.07;;
9420;SDS011;4749;51.398;5.466;2023-12-14T01:22:45;32.70;;;18.43;;
9420;SDS011;4749;51.398;5.466;2023-12-14T01:25:12;31.90;;;18.57;;
9420;SDS011;4749;51.398;5.466;2023-12-14T01:27:39;33.33;;;19.30;;
9420;SDS011;4749;51.398;5.466;2023-12-14T01:30:06;35.13;;;20.73;;
9420;SDS011;4749;51.398;5.466;2023-12-14T01:32:34;39.07;;;19.60;;
9420;SDS011;4749;51.398;5.466;2023-12-14T01:35:03;36.20;;;19.53;;
9420;SDS011;4749;51.398;5.466;2023-12-14T01:37:31;41.20;;;20.33;;
9420;SDS011;4749;51.398;5.466;2023-12-14T01:39:58;32.07;;;17.77;;
9420;SDS011;4749;51.398;5.466;2023-12-14T01:42:25;35.37;;;18.67;;
9420;SDS011;4749;51.398;5.466;2023-12-14T01:44:53;39.77;;;20.40;;
9420;SDS011;4749;51.398;5.466;2023-12-14T01:47:21;39.90;;;20.03;;
9420;SDS011;4749;51.398;5.466;2023-12-14T01:49:52;37.07;;;19.70;;
9420;SDS011;4749;51.398;5.466;2023-12-14T01:52:21;35.80;;;19.33;;
9420;SDS011;4749;51.398;5.466;2023-12-14T01:54:49;32.93;;;18.23;;
9420;SDS011;4749;51.398;5.466;2023-12-14T01:57:16;32.43;;;16.70;;
9420;SDS011;4749;51.398;5.466;2023-12-14T01:59:43;33.33;;;17.80;;
9420;SDS011;4749;51.398;5.466;2023-12-14T02:02:10;33.87;;;17.80;;
9420;SDS011;4749;51.398;5.466;2023-12-14T02:04:38;33.93;;;18.00;;
9420;SDS011;4749;51.398;5.466;2023-12-14T02:07:05;30.13;;;16.33;;
9420;SDS011;4749;51.398;5.466;2023-12-14T02:09:33;34.63;;;17.57;;
9420;SDS011;4749;51.398;5.466;2023-12-14T02:12:00;31.53;;;17.50;;
9420;SDS011;4749;51.398;5.466;2023-12-14T02:14:30;29.87;;;16.67;;
9420;SDS011;4749;51.398;5.466;2023-12-14T02:16:58;25.83;;;15.50;;
9420;SDS011;4749;51.398;5.466;2023-12-14T02:19:26;30.13;;;16.33;;
9420;SDS011;4749;51.398;5.466;2023-12-14T02:21:54;27.37;;;15.57;;
9420;SDS011;4749;51.398;5.466;2023-12-14T02:24:22;28.77;;;16.00;;
9420;SDS011;4749;51.398;5.466;2023-12-14T02:26:49;27.40;;;16.00;;
9420;SDS011;4749;51.398;5.466;2023-12-14T02:29:30;29.20;;;16.30;;
9420;SDS011;4749;51.398;5.466;2023-12-14T02:31:58;25.00;;;15.00;;
9420;SDS011;4749;51.398;5.466;2023-12-14T02:34:27;22.60;;;14.63;;
9420;SDS011;4749;51.398;5.466;2023-12-14T02:36:55;24.90;;;13.93;;
9420;SDS011;4749;51.398;5.466;2023-12-14T02:39:22;26.43;;;15.47;;
9420;SDS011;4749;51.398;5.466;2023-12-14T02:41:49;24.33;;;14.27;;
9420;SDS011;4749;51.398;5.466;2023-12-14T02:44:16;26.03;;;14.97;;
9420;SDS011;4749;51.398;5.466;2023-12-14T02:46:44;24.70;;;14.33;;
9420;SDS011;4749;51.398;5.466;2023-12-14T02:49:11;24.90;;;14.23;;
9420;SDS011;4749;51.398;5.466;2023-12-14T02:51:38;23.10;;;14.20;;
9420;SDS011;4749;51.398;5.466;2023-12-14T02:54:06;21.70;;;13.43;;
9420;SDS011;4749;51.398;5.466;2023-12-14T02:56:33;24.23;;;14.80;;
9420;SDS011;4749;51.398;5.466;2023-12-14T02:59:02;21.47;;;13.20;;
9420;SDS011;4749;51.398;5.466;2023-12-14T03:01:29;21.60;;;13.87;;
9420;SDS011;4749;51.398;5.466;2023-12-14T03:03:57;22.23;;;14.03;;
9420;SDS011;4749;51.398;5.466;2023-12-14T03:06:24;24.03;;;14.70;;
9420;SDS011;4749;51.398;5.466;2023-12-14T03:08:52;24.63;;;14.37;;
9420;SDS011;4749;51.398;5.466;2023-12-14T03:11:22;25.37;;;14.13;;
9420;SDS011;4749;51.398;5.466;2023-12-14T03:13:50;24.80;;;13.97;;
9420;SDS011;4749;51.398;5.466;2023-12-14T03:16:18;23.33;;;14.63;;
9420;SDS011;4749;51.398;5.466;2023-12-14T03:18:45;24.80;;;14.50;;
9420;SDS011;4749;51.398;5.466;2023-12-14T03:21:14;25.63;;;15.40;;
9420;SDS011;4749;51.398;5.466;2023-12-14T03:23:41;26.57;;;16.00;;
9420;SDS011;4749;51.398;5.466;2023-12-14T03:26:08;28.67;;;16.83;;
9420;SDS011;4749;51.398;5.466;2023-12-14T03:28:35;26.90;;;16.47;;
9420;SDS011;4749;51.398;5.466;2023-12-14T03:31:03;23.60;;;15.63;;
9420;SDS011;4749;51.398;5.466;2023-12-14T03:33:32;25.27;;;15.10;;
9420;SDS011;4749;51.398;5.466;2023-12-14T03:35:59;23.73;;;15.60;;
9420;SDS011;4749;51.398;5.466;2023-12-14T03:38:28;26.10;;;15.40;;
9420;SDS011;4749;51.398;5.466;2023-12-14T03:40:56;26.17;;;15.77;;
9420;SDS011;4749;51.398;5.466;2023-12-14T03:43:23;26.13;;;15.87;;
9420;SDS011;4749;51.398;5.466;2023-12-14T03:45:51;24.83;;;14.60;;
9420;SDS011;4749;51.398;5.466;2023-12-14T03:48:18;24.70;;;15.37;;
9420;SDS011;4749;51.398;5.466;2023-12-14T03:50:45;25.50;;;15.27;;
9420;SDS011;4749;51.398;5.466;2023-12-14T03:53:13;22.80;;;14.73;;
9420;SDS011;4749;51.398;5.466;2023-12-14T03:55:41;22.10;;;14.17;;
9420;SDS011;4749;51.398;5.466;2023-12-14T03:58:08;22.93;;;14.53;;
9420;SDS011;4749;51.398;5.466;2023-12-14T04:00:37;25.23;;;15.03;;
9420;SDS011;4749;51.398;5.466;2023-12-14T04:03:06;24.97;;;15.27;;
9420;SDS011;4749;51.398;5.466;2023-12-14T04:05:35;25.20;;;14.83;;
9420;SDS011;4749;51.398;5.466;2023-12-14T04:08:02;28.30;;;15.70;;
9420;SDS011;4749;51.398;5.466;2023-12-14T04:10:32;26.60;;;15.03;;
9420;SDS011;4749;51.398;5.466;2023-12-14T04:13:00;24.73;;;15.93;;
9420;SDS011;4749;51.398;5.466;2023-12-14T04:15:27;22.73;;;15.20;;
9420;SDS011;4749;51.398;5.466;2023-12-14T04:17:54;24.27;;;15.70;;
9420;SDS011;4749;51.398;5.466;2023-12-14T04:20:21;24.53;;;15.00;;
9420;SDS011;4749;51.398;5.466;2023-12-14T04:22:48;24.03;;;14.70;;
9420;SDS011;4749;51.398;5.466;2023-12-14T04:25:16;24.50;;;15.73;;
9420;SDS011;4749;51.398;5.466;2023-12-14T04:27:43;25.10;;;15.57;;
9420;SDS011;4749;51.398;5.466;2023-12-14T04:30:11;22.80;;;15.20;;
9420;SDS011;4749;51.398;5.466;2023-12-14T04:32:38;21.60;;;14.47;;
9420;SDS011;4749;51.398;5.466;2023-12-14T04:35:05;22.70;;;14.97;;
9420;SDS011;4749;51.398;5.466;2023-12-14T04:37:33;24.73;;;14.93;;
9420;SDS011;4749;51.398;5.466;2023-12-14T04:40:02;25.37;;;15.73;;
9420;SDS011;4749;51.398;5.466;2023-12-14T04:42:30;24.63;;;16.13;;
9420;SDS011;4749;51.398;5.466;2023-12-14T04:44:57;24.07;;;16.30;;
9420;SDS011;4749;51.398;5.466;2023-12-14T04:47:24;26.80;;;17.10;;
9420;SDS011;4749;51.398;5.466;2023-12-14T04:49:52;24.70;;;15.70;;
9420;SDS011;4749;51.398;5.466;2023-12-14T04:52:19;23.93;;;15.83;;
9420;SDS011;4749;51.398;5.466;2023-12-14T04:54:46;24.43;;;15.53;;
9420;SDS011;4749;51.398;5.466;2023-12-14T04:57:13;23.33;;;15.53;;
9420;SDS011;4749;51.398;5.466;2023-12-14T04:59:41;26.03;;;16.47;;
9420;SDS011;4749;51.398;5.466;2023-12-14T05:02:08;24.80;;;15.67;;
9420;SDS011;4749;51.398;5.466;2023-12-14T05:04:36;26.87;;;16.07;;
9420;SDS011;4749;51.398;5.466;2023-12-14T05:07:03;25.70;;;15.57;;
9420;SDS011;4749;51.398;5.466;2023-12-14T05:09:30;22.90;;;15.07;;
9420;SDS011;4749;51.398;5.466;2023-12-14T05:11:57;24.43;;;15.93;;
9420;SDS011;4749;51.398;5.466;2023-12-14T05:14:24;24.13;;;15.27;;
9420;SDS011;4749;51.398;5.466;2023-12-14T05:16:53;23.70;;;15.63;;
9420;SDS011;4749;51.398;5.466;2023-12-14T05:19:20;23.53;;;15.40;;
9420;SDS011;4749;51.398;5.466;2023-12-14T05:21:47;24.63;;;15.63;;
9420;SDS011;4749;51.398;5.466;2023-12-14T05:24:14;21.57;;;14.63;;
9420;SDS011;4749;51.398;5.466;2023-12-14T05:26:42;21.43;;;14.23;;
9420;SDS011;4749;51.398;5.466;2023-12-14T05:29:09;20.60;;;14.00;;
9420;SDS011;4749;51.398;5.466;2023-12-14T05:31:36;20.40;;;13.63;;
9420;SDS011;4749;51.398;5.466;2023-12-14T05:34:04;20.77;;;13.53;;
9420;SDS011;4749;51.398;5.466;2023-12-14T05:36:31;22.17;;;14.47;;
9420;SDS011;4749;51.398;5.466;2023-12-14T05:38:58;23.67;;;14.33;;
9420;SDS011;4749;51.398;5.466;2023-12-14T05:41:25;24.03;;;15.53;;
9420;SDS011;4749;51.398;5.466;2023-12-14T05:43:52;23.03;;;15.10;;
9420;SDS011;4749;51.398;5.466;2023-12-14T05:46:20;24.23;;;14.97;;
9420;SDS011;4749;51.398;5.466;2023-12-14T05:48:50;25.37;;;16.00;;
9420;SDS011;4749;51.398;5.466;2023-12-14T05:51:31;23.33;;;15.13;;
9420;SDS011;4749;51.398;5.466;2023-12-14T05:53:59;21.60;;;14.57;;
9420;SDS011;4749;51.398;5.466;2023-12-14T05:56:26;23.03;;;14.90;;
9420;SDS011;4749;51.398;5.466;2023-12-14T05:58:53;22.67;;;14.50;;
9420;SDS011;4749;51.398;5.466;2023-12-14T06:01:22;21.67;;;15.27;;
9420;SDS011;4749;51.398;5.466;2023-12-14T06:03:51;23.67;;;14.90;;
9420;SDS011;4749;51.398;5.466;2023-12-14T06:06:18;21.80;;;14.80;;
9420;SDS011;4749;51.398;5.466;2023-12-14T06:08:45;20.30;;;14.07;;
9420;SDS011;4749;51.398;5.466;2023-12-14T06:11:13;20.97;;;14.97;;
9420;SDS011;4749;51.398;5.466;2023-12-14T06:13:40;23.47;;;15.20;;
9420;SDS011;4749;51.398;5.466;2023-12-14T06:16:07;20.70;;;14.57;;
9420;SDS011;4749;51.398;5.466;2023-12-14T06:18:39;22.80;;;15.23;;
9420;SDS011;4749;51.398;5.466;2023-12-14T06:21:13;24.80;;;15.80;;
9420;SDS011;4749;51.398;5.466;2023-12-14T06:23:40;24.20;;;15.40;;
9420;SDS011;4749;51.398;5.466;2023-12-14T06:26:08;24.33;;;16.00;;
9420;SDS011;4749;51.398;5.466;2023-12-14T06:28:35;23.27;;;15.63;;
9420;SDS011;4749;51.398;5.466;2023-12-14T06:31:02;21.53;;;15.07;;
9420;SDS011;4749;51.398;5.466;2023-12-14T06:33:30;22.93;;;15.30;;
9420;SDS011;4749;51.398;5.466;2023-12-14T06:35:58;26.50;;;16.27;;
9420;SDS011;4749;51.398;5.466;2023-12-14T06:38:29;21.20;;;15.03;;
9420;SDS011;4749;51.398;5.466;2023-12-14T06:40:56;24.30;;;15.30;;
9420;SDS011;4749;51.398;5.466;2023-12-14T06:43:23;21.17;;;15.00;;
9420;SDS011;4749;51.398;5.466;2023-12-14T06:45:50;21.10;;;15.27;;
9420;SDS011;4749;51.398;5.466;2023-12-14T06:48:17;21.40;;;15.33;;
9420;SDS011;4749;51.398;5.466;2023-12-14T06:50:44;21.07;;;15.03;;
9420;SDS011;4749;51.398;5.466;2023-12-14T06:53:14;24.23;;;15.63;;
9420;SDS011;4749;51.398;5.466;2023-12-14T06:55:42;20.83;;;15.10;;
9420;SDS011;4749;51.398;5.466;2023-12-14T06:58:09;22.73;;;14.70;;
9420;SDS011;4749;51.398;5.466;2023-12-14T07:00:38;22.80;;;14.73;;
9420;SDS011;4749;51.398;5.466;2023-12-14T07:03:05;22.37;;;14.83;;
9420;SDS011;4749;51.398;5.466;2023-12-14T07:05:32;22.20;;;14.87;;
9420;SDS011;4749;51.398;5.466;2023-12-14T07:07:59;21.80;;;15.00;;
9420;SDS011;4749;51.398;5.466;2023-12-14T07:10:27;25.40;;;15.30;;
9420;SDS011;4749;51.398;5.466;2023-12-14T07:12:54;19.73;;;13.60;;
9420;SDS011;4749;51.398;5.466;2023-12-14T07:15:21;22.33;;;16.20;;
9420;SDS011;4749;51.398;5.466;2023-12-14T07:17:48;21.80;;;14.90;;
9420;SDS011;4749;51.398;5.466;2023-12-14T07:20:16;21.73;;;13.97;;
9420;SDS011;4749;51.398;5.466;2023-12-14T07:22:43;22.03;;;15.00;;
9420;SDS011;4749;51.398;5.466;2023-12-14T07:25:10;20.90;;;15.10;;
9420;SDS011;4749;51.398;5.466;2023-12-14T07:27:37;23.17;;;14.87;;
9420;SDS011;4749;51.398;5.466;2023-12-14T07:30:04;24.80;;;15.60;;
9420;SDS011;4749;51.398;5.466;2023-12-14T07:32:32;25.77;;;15.50;;
9420;SDS011;4749;51.398;5.466;2023-12-14T07:35:00;25.30;;;15.60;;
9420;SDS011;4749;51.398;5.466;2023-12-14T07:37:27;27.97;;;16.90;;
9420;SDS011;4749;51.398;5.466;2023-12-14T07:39:54;36.50;;;17.90;;
9420;SDS011;4749;51.398;5.466;2023-12-14T07:42:21;31.33;;;18.57;;
9420;SDS011;4749;51.398;5.466;2023-12-14T07:44:48;34.60;;;18.07;;
9420;SDS011;4749;51.398;5.466;2023-12-14T07:47:15;33.27;;;18.97;;
9420;SDS011;4749;51.398;5.466;2023-12-14T07:49:43;32.87;;;18.73;;
9420;SDS011;4749;51.398;5.466;2023-12-14T07:52:10;32.40;;;18.90;;
9420;SDS011;4749;51.398;5.466;2023-12-14T07:54:37;34.43;;;18.03;;
9420;SDS011;4749;51.398;5.466;2023-12-14T07:57:04;32.40;;;18.50;;
9420;SDS011;4749;51.398;5.466;2023-12-14T07:59:32;31.53;;;18.63;;
9420;SDS011;4749;51.398;5.466;2023-12-14T08:01:59;35.87;;;19.30;;
9420;SDS011;4749;51.398;5.466;2023-12-14T08:04:26;36.13;;;19.13;;
9420;SDS011;4749;51.398;5.466;2023-12-14T08:06:53;35.73;;;18.63;;
9420;SDS011;4749;51.398;5.466;2023-12-14T08:09:21;38.33;;;19.67;;
9420;SDS011;4749;51.398;5.466;2023-12-14T08:11:48;34.90;;;19.67;;
9420;SDS011;4749;51.398;5.466;2023-12-14T08:14:16;39.03;;;18.03;;
9420;SDS011;4749;51.398;5.466;2023-12-14T08:16:43;33.17;;;18.00;;
9420;SDS011;4749;51.398;5.466;2023-12-14T08:19:10;32.67;;;17.80;;
9420;SDS011;4749;51.398;5.466;2023-12-14T08:21:37;28.20;;;16.77;;
9420;SDS011;4749;51.398;5.466;2023-12-14T08:24:05;28.43;;;15.93;;
9420;SDS011;4749;51.398;5.466;2023-12-14T08:26:32;29.87;;;15.93;;
9420;SDS011;4749;51.398;5.466;2023-12-14T08:28:59;27.60;;;15.60;;
9420;SDS011;4749;51.398;5.466;2023-12-14T08:31:26;29.10;;;16.27;;
9420;SDS011;4749;51.398;5.466;2023-12-14T08:33:53;24.90;;;14.17;;
9420;SDS011;4749;51.398;5.466;2023-12-14T08:36:20;24.90;;;13.47;;
9420;SDS011;4749;51.398;5.466;2023-12-14T08:38:47;26.63;;;13.90;;
9420;SDS011;4749;51.398;5.466;2023-12-14T08:41:15;26.97;;;13.90;;
9420;SDS011;4749;51.398;5.466;2023-12-14T08:43:42;24.47;;;13.53;;
9420;SDS011;4749;51.398;5.466;2023-12-14T08:46:10;23.63;;;12.90;;
9420;SDS011;4749;51.398;5.466;2023-12-14T08:48:37;20.63;;;13.37;;
9420;SDS011;4749;51.398;5.466;2023-12-14T08:51:05;24.43;;;13.50;;
9420;SDS011;4749;51.398;5.466;2023-12-14T08:53:32;21.03;;;12.27;;
9420;SDS011;4749;51.398;5.466;2023-12-14T08:56:00;18.50;;;11.93;;
9420;SDS011;4749;51.398;5.466;2023-12-14T08:58:28;19.63;;;12.63;;
9420;SDS011;4749;51.398;5.466;2023-12-14T09:00:55;19.30;;;11.73;;
9420;SDS011;4749;51.398;5.466;2023-12-14T09:03:23;20.23;;;13.23;;
9420;SDS011;4749;51.398;5.466;2023-12-14T09:05:50;19.87;;;12.43;;
9420;SDS011;4749;51.398;5.466;2023-12-14T09:08:17;20.00;;;12.43;;
9420;SDS011;4749;51.398;5.466;2023-12-14T09:10:44;19.63;;;12.83;;
9420;SDS011;4749;51.398;5.466;2023-12-14T09:13:12;19.90;;;11.93;;
9420;SDS011;4749;51.398;5.466;2023-12-14T09:15:39;21.37;;;12.77;;
9420;SDS011;4749;51.398;5.466;2023-12-14T09:18:06;19.83;;;12.87;;
9420;SDS011;4749;51.398;5.466;2023-12-14T09:20:33;17.40;;;11.57;;
9420;SDS011;4749;51.398;5.466;2023-12-14T09:23:01;22.97;;;12.60;;
9420;SDS011;4749;51.398;5.466;2023-12-14T09:25:29;19.23;;;12.40;;
9420;SDS011;4749;51.398;5.466;2023-12-14T09:27:56;16.87;;;11.77;;
9420;SDS011;4749;51.398;5.466;2023-12-14T09:30:23;22.47;;;13.03;;
9420;SDS011;4749;51.398;5.466;2023-12-14T09:32:50;18.13;;;11.50;;
9420;SDS011;4749;51.398;5.466;2023-12-14T09:35:17;19.57;;;11.80;;
9420;SDS011;4749;51.398;5.466;2023-12-14T09:37:45;19.80;;;12.50;;
9420;SDS011;4749;51.398;5.466;2023-12-14T09:40:12;17.37;;;11.73;;
9420;SDS011;4749;51.398;5.466;2023-12-14T09:42:41;16.93;;;11.23;;
9420;SDS011;4749;51.398;5.466;2023-12-14T09:45:08;16.90;;;11.57;;
9420;SDS011;4749;51.398;5.466;2023-12-14T09:47:37;15.97;;;11.50;;
9420;SDS011;4749;51.398;5.466;2023-12-14T09:50:06;15.30;;;11.30;;
9420;SDS011;4749;51.398;5.466;2023-12-14T09:52:34;16.80;;;11.30;;
9420;SDS011;4749;51.398;5.466;2023-12-14T09:55:01;16.33;;;10.83;;
9420;SDS011;4749;51.398;5.466;2023-12-14T09:57:30;16.67;;;11.50;;
9420;SDS011;4749;51.398;5.466;2023-12-14T09:59:58;15.13;;;10.37;;
9420;SDS011;4749;51.398;5.466;2023-12-14T10:02:26;14.53;;;10.27;;
9420;SDS011;4749;51.398;5.466;2023-12-14T10:04:54;15.40;;;9.93;;
9420;SDS011;4749;51.398;5.466;2023-12-14T10:07:21;13.67;;;10.43;;
9420;SDS011;4749;51.398;5.466;2023-12-14T10:09:49;15.63;;;10.10;;
9420;SDS011;4749;51.398;5.466;2023-12-14T10:12:17;13.40;;;9.93;;
9420;SDS011;4749;51.398;5.466;2023-12-14T10:14:47;13.97;;;9.83;;
9420;SDS011;4749;51.398;5.466;2023-12-14T10:17:26;13.90;;;10.60;;
9420;SDS011;4749;51.398;5.466;2023-12-14T10:19:59;15.07;;;9.77;;
9420;SDS011;4749;51.398;5.466;2023-12-14T10:22:30;15.13;;;10.03;;
9420;SDS011;4749;51.398;5.466;2023-12-14T10:24:58;15.40;;;9.60;;
9420;SDS011;4749;51.398;5.466;2023-12-14T10:27:27;16.33;;;9.80;;
9420;SDS011;4749;51.398;5.466;2023-12-14T10:29:55;11.40;;;9.90;;
9420;SDS011;4749;51.398;5.466;2023-12-14T10:32:23;14.40;;;9.77;;
9420;SDS011;4749;51.398;5.466;2023-12-14T10:34:51;12.87;;;9.83;;
9420;SDS011;4749;51.398;5.466;2023-12-14T10:37:18;13.37;;;9.77;;
9420;SDS011;4749;51.398;5.466;2023-12-14T10:39:49;13.67;;;9.50;;
9420;SDS011;4749;51.398;5.466;2023-12-14T10:42:28;13.80;;;9.40;;
9420;SDS011;4749;51.398;5.466;2023-12-14T10:44:58;11.00;;;8.60;;
9420;SDS011;4749;51.398;5.466;2023-12-14T10:47:44;12.73;;;9.97;;
9420;SDS011;4749;51.398;5.466;2023-12-14T10:50:15;14.27;;;9.07;;
9420;SDS011;4749;51.398;5.466;2023-12-14T10:52:43;12.30;;;8.97;;
9420;SDS011;4749;51.398;5.466;2023-12-14T10:55:21;12.63;;;8.67;;
9420;SDS011;4749;51.398;5.466;2023-12-14T10:58:05;13.73;;;8.77;;
9420;SDS011;4749;51.398;5.466;2023-12-14T11:00:34;14.40;;;9.20;;
9420;SDS011;4749;51.398;5.466;2023-12-14T11:03:06;14.70;;;8.97;;
9420;SDS011;4749;51.398;5.466;2023-12-14T11:05:33;12.00;;;8.70;;
9420;SDS011;4749;51.398;5.466;2023-12-14T11:08:03;15.53;;;9.73;;
9420;SDS011;4749;51.398;5.466;2023-12-14T11:10:39;15.47;;;9.73;;
9420;SDS011;4749;51.398;5.466;2023-12-14T11:13:21;11.97;;;9.00;;
9420;SDS011;4749;51.398;5.466;2023-12-14T11:15:51;13.17;;;9.40;;
9420;SDS011;4749;51.398;5.466;2023-12-14T11:18:19;11.77;;;9.00;;
9420;SDS011;4749;51.398;5.466;2023-12-14T11:20:49;12.40;;;9.43;;
9420;SDS011;4749;51.398;5.466;2023-12-14T11:25:53;12.37;;;9.17;;
9420;SDS011;4749;51.398;5.466;2023-12-14T11:28:31;11.70;;;8.67;;
9420;SDS011;4749;51.398;5.466;2023-12-14T11:31:03;12.67;;;8.90;;
9420;SDS011;4749;51.398;5.466;2023-12-14T11:33:34;11.63;;;8.67;;
9420;SDS011;4749;51.398;5.466;2023-12-14T11:36:09;12.63;;;8.73;;
9420;SDS011;4749;51.398;5.466;2023-12-14T11:38:39;14.90;;;9.50;;
9420;SDS011;4749;51.398;5.466;2023-12-14T11:41:06;12.97;;;8.70;;
9420;SDS011;4749;51.398;5.466;2023-12-14T11:43:40;12.10;;;8.90;;
9420;SDS011;4749;51.398;5.466;2023-12-14T11:46:10;14.00;;;9.67;;
9420;SDS011;4749;51.398;5.466;2023-12-14T11:48:38;10.90;;;8.17;;
9420;SDS011;4749;51.398;5.466;2023-12-14T11:51:06;13.27;;;9.27;;
9420;SDS011;4749;51.398;5.466;2023-12-14T11:53:33;11.87;;;8.63;;
9420;SDS011;4749;51.398;5.466;2023-12-14T11:56:05;11.53;;;9.00;;
9420;SDS011;4749;51.398;5.466;2023-12-14T11:58:33;11.67;;;8.57;;
9420;SDS011;4749;51.398;5.466;2023-12-14T12:01:11;12.07;;;8.40;;
9420;SDS011;4749;51.398;5.466;2023-12-14T12:03:40;11.47;;;8.37;;
9420;SDS011;4749;51.398;5.466;2023-12-14T12:06:07;10.73;;;8.57;;
9420;SDS011;4749;51.398;5.466;2023-12-14T12:08:40;12.40;;;8.90;;
9420;SDS011;4749;51.398;5.466;2023-12-14T12:11:10;11.07;;;8.33;;
9420;SDS011;4749;51.398;5.466;2023-12-14T12:13:42;9.80;;;7.60;;
9420;SDS011;4749;51.398;5.466;2023-12-14T12:16:09;12.77;;;8.27;;
9420;SDS011;4749;51.398;5.466;2023-12-14T12:18:36;11.60;;;8.20;;
9420;SDS011;4749;51.398;5.466;2023-12-14T12:21:06;11.90;;;7.77;;
9420;SDS011;4749;51.398;5.466;2023-12-14T12:23:35;12.47;;;7.80;;
9420;SDS011;4749;51.398;5.466;2023-12-14T12:26:02;11.70;;;7.70;;
9420;SDS011;4749;51.398;5.466;2023-12-14T12:28:30;12.53;;;8.03;;
9420;SDS011;4749;51.398;5.466;2023-12-14T12:30:58;10.67;;;7.60;;
9420;SDS011;4749;51.398;5.466;2023-12-14T12:33:26;11.23;;;6.97;;
9420;SDS011;4749;51.398;5.466;2023-12-14T12:35:54;10.50;;;6.90;;
9420;SDS011;4749;51.398;5.466;2023-12-14T12:38:22;11.10;;;6.60;;
9420;SDS011;4749;51.398;5.466;2023-12-14T12:40:49;9.43;;;7.17;;
9420;SDS011;4749;51.398;5.466;2023-12-14T12:43:16;8.13;;;6.17;;
9420;SDS011;4749;51.398;5.466;2023-12-14T12:45:44;11.40;;;7.23;;
9420;SDS011;4749;51.398;5.466;2023-12-14T12:48:11;9.67;;;7.03;;
9420;SDS011;4749;51.398;5.466;2023-12-14T12:50:39;9.80;;;7.53;;
9420;SDS011;4749;51.398;5.466;2023-12-14T12:53:06;8.07;;;6.83;;
9420;SDS011;4749;51.398;5.466;2023-12-14T12:55:33;8.60;;;6.67;;
9420;SDS011;4749;51.398;5.466;2023-12-14T12:58:00;10.63;;;7.30;;
9420;SDS011;4749;51.398;5.466;2023-12-14T13:00:31;10.10;;;7.33;;
9420;SDS011;4749;51.398;5.466;2023-12-14T13:03:02;8.97;;;6.90;;
9420;SDS011;4749;51.398;5.466;2023-12-14T13:05:29;10.70;;;7.40;;
9420;SDS011;4749;51.398;5.466;2023-12-14T13:07:56;10.83;;;7.77;;
9420;SDS011;4749;51.398;5.466;2023-12-14T13:10:24;9.30;;;7.03;;
9420;SDS011;4749;51.398;5.466;2023-12-14T13:12:58;10.33;;;7.77;;
9420;SDS011;4749;51.398;5.466;2023-12-14T13:15:25;11.80;;;8.40;;
9420;SDS011;4749;51.398;5.466;2023-12-14T13:17:55;9.63;;;7.67;;
9420;SDS011;4749;51.398;5.466;2023-12-14T13:20:24;10.53;;;7.47;;
9420;SDS011;4749;51.398;5.466;2023-12-14T13:22:51;9.73;;;7.73;;
9420;SDS011;4749;51.398;5.466;2023-12-14T13:25:19;10.10;;;7.70;;
9420;SDS011;4749;51.398;5.466;2023-12-14T13:27:49;9.93;;;7.70;;
9420;SDS011;4749;51.398;5.466;2023-12-14T13:30:18;12.03;;;8.23;;
9420;SDS011;4749;51.398;5.466;2023-12-14T13:32:49;11.63;;;8.43;;
9420;SDS011;4749;51.398;5.466;2023-12-14T13:35:16;10.13;;;8.13;;
9420;SDS011;4749;51.398;5.466;2023-12-14T13:37:43;18.40;;;8.63;;
9420;SDS011;4749;51.398;5.466;2023-12-14T13:40:10;12.23;;;8.47;;
9420;SDS011;4749;51.398;5.466;2023-12-14T13:42:43;9.97;;;7.53;;
9420;SDS011;4749;51.398;5.466;2023-12-14T13:45:28;10.63;;;8.17;;
9420;SDS011;4749;51.398;5.466;2023-12-14T13:47:56;11.20;;;8.10;;
9420;SDS011;4749;51.398;5.466;2023-12-14T13:50:25;12.03;;;8.20;;
9420;SDS011;4749;51.398;5.466;2023-12-14T13:52:54;10.43;;;8.27;;
9420;SDS011;4749;51.398;5.466;2023-12-14T13:55:21;11.40;;;7.90;;
9420;SDS011;4749;51.398;5.466;2023-12-14T13:57:48;10.87;;;7.87;;
9420;SDS011;4749;51.398;5.466;2023-12-14T14:00:16;9.77;;;7.63;;
9420;SDS011;4749;51.398;5.466;2023-12-14T14:02:45;12.53;;;9.00;;
9420;SDS011;4749;51.398;5.466;2023-12-14T14:05:12;11.23;;;8.30;;
9420;SDS011;4749;51.398;5.466;2023-12-14T14:07:39;11.27;;;8.43;;
9420;SDS011;4749;51.398;5.466;2023-12-14T14:10:06;12.40;;;8.87;;
9420;SDS011;4749;51.398;5.466;2023-12-14T14:12:34;11.73;;;8.37;;
9420;SDS011;4749;51.398;5.466;2023-12-14T14:15:02;12.13;;;8.67;;
9420;SDS011;4749;51.398;5.466;2023-12-14T14:17:29;13.53;;;8.83;;
9420;SDS011;4749;51.398;5.466;2023-12-14T14:19:56;11.80;;;8.23;;
9420;SDS011;4749;51.398;5.466;2023-12-14T14:22:27;11.03;;;8.47;;
9420;SDS011;4749;51.398;5.466;2023-12-14T14:24:54;14.23;;;9.73;;
9420;SDS011;4749;51.398;5.466;2023-12-14T14:27:21;11.47;;;8.13;;
9420;SDS011;4749;51.398;5.466;2023-12-14T14:29:51;12.30;;;9.00;;
9420;SDS011;4749;51.398;5.466;2023-12-14T14:32:22;13.80;;;8.23;;
9420;SDS011;4749;51.398;5.466;2023-12-14T14:34:50;11.87;;;9.60;;
9420;SDS011;4749;51.398;5.466;2023-12-14T14:37:19;12.83;;;8.67;;
9420;SDS011;4749;51.398;5.466;2023-12-14T14:39:47;13.03;;;9.60;;
9420;SDS011;4749;51.398;5.466;2023-12-14T14:42:14;12.87;;;8.77;;
9420;SDS011;4749;51.398;5.466;2023-12-14T14:44:41;13.90;;;9.17;;
9420;SDS011;4749;51.398;5.466;2023-12-14T14:47:11;12.30;;;9.20;;
9420;SDS011;4749;51.398;5.466;2023-12-14T14:49:40;12.93;;;8.80;;
9420;SDS011;4749;51.398;5.466;2023-12-14T14:52:10;14.03;;;9.77;;
9420;SDS011;4749;51.398;5.466;2023-12-14T14:54:37;12.87;;;9.43;;
9420;SDS011;4749;51.398;5.466;2023-12-14T14:57:05;14.30;;;9.63;;
9420;SDS011;4749;51.398;5.466;2023-12-14T14:59:35;13.70;;;10.43;;
9420;SDS011;4749;51.398;5.466;2023-12-14T15:02:02;13.57;;;10.20;;